PWSweather.com
Personal Weather Stations
Station Observations
CAPRACOTTA
Via San Giovanni 92 Capracotta, The Apennine Ski Resort In Molise, CapracottaIT 86082

Via San Giovanni 92 Capracotta, The Apennine Ski Resort In MoliseCapracottaIT 86082

Lat: 41.836612, Lon: 14.266970000000015

Elevation: 4663

Station Type: Netatmo Weather Station

http://www.neveappennino.it

Latest ConditionsUpdated 3:10:00 PM GMT+01:01 Wednesday, Mar 20, 2019
Currently Today's Max Today's Min Today's Average
Temperature 29.7°F-1.3°C 31.5°F-0.3°C 27.1°F-2.7°C 28.4°F-2.0°C
Dew Point 21.9°F-5.6°C 25.5°F-3.6°C 21.9°F-5.6°C 24.4°F-4.2°C
Winds 8.7 mph WNW14.0 kmh WNW 9.8 mph -15.8 kmh - - 6.7 mph 10.8 kmh
Wind Gusts 31.8 mph51.2 kmh 32.9 mph52.9 kmh - -
Humidity 78% 93% 78% 89%
Pressure 30.30 in1026.1 mb 30.32 in1026.8 mb 30.21 in1023.0 mb -
Precipitation - 0.06 in1.5 mm - -
Hour Temp Dew Point Humidity Winds Wind Gusts Pressure Precip Precip Rate Daily Precip Total
03:10 PM 29.7°F-1.3°C 21.9°F-5.6°C 78% 8.7 mph WNW14.0 kmh WNW 31.8 mph51.2 kmh 30.30 in1026.1 mb 0.02 in0.5 mm 0.00 in0.0 mm 0.06 in1.5 mm
02:50 PM 30.4°F-0.9°C 23.0°F-5.0°C 79% 6.9 mph NW11.1 kmh NW 19.2 mph30.9 kmh 30.31 in1026.4 mb 0.02 in0.5 mm 0.00 in0.0 mm 0.06 in1.5 mm
02:30 PM 30.7°F-0.7°C 24.1°F-4.4°C 81% 6.3 mph NW10.1 kmh NW 16.8 mph27.0 kmh 30.31 in1026.4 mb 0.02 in0.5 mm 0.00 in0.0 mm 0.05 in1.3 mm
02:10 PM 30.6°F-0.8°C 23.9°F-4.5°C 81% 9.8 mph NW15.8 kmh NW 26.2 mph42.2 kmh 30.31 in1026.4 mb 0.03 in0.8 mm 0.00 in0.0 mm 0.05 in1.3 mm
01:50 PM 31.3°F-0.4°C 24.4°F-4.2°C 81% 8.7 mph NW14.0 kmh NW 28.6 mph46.0 kmh 30.31 in1026.4 mb 0.04 in1.0 mm 0.05 in1.3 mm 0.04 in1.0 mm
01:30 PM 31.5°F-0.3°C 24.3°F-4.3°C 80% 7.4 mph WNW11.9 kmh WNW 20.6 mph33.2 kmh 30.32 in1026.8 mb 0.02 in0.5 mm 0.03 in0.8 mm 0.02 in0.5 mm
01:02 PM 30.9°F-0.6°C 24.4°F-4.2°C 82% 7.4 mph WNW11.9 kmh WNW 25.5 mph41.0 kmh 30.32 in1026.8 mb 0.01 in0.3 mm 0.01 in0.3 mm 0.01 in0.3 mm
12:46 PM 29.8°F-1.2°C 24.3°F-4.3°C 84% 6.3 mph WNW10.1 kmh WNW 19.2 mph30.9 kmh 30.32 in1026.8 mb 0.00 in0.0 mm 0.00 in0.0 mm 0.00 in0.0 mm
12:26 PM 29.5°F-1.4°C 23.9°F-4.5°C 84% 6.9 mph WNW11.1 kmh WNW 19.2 mph30.9 kmh 30.32 in1026.8 mb 0.00 in0.0 mm 0.00 in0.0 mm 0.00 in0.0 mm
12:06 PM 28.8°F-1.8°C 23.9°F-4.5°C 86% 6.9 mph WNW11.1 kmh WNW 18.1 mph29.1 kmh 30.32 in1026.8 mb 0.00 in0.0 mm 0.00 in0.0 mm 0.00 in0.0 mm
11:46 AM 28.4°F-2.0°C 23.9°F-4.5°C 87% 6.9 mph NW11.1 kmh NW 18.1 mph29.1 kmh 30.32 in1026.8 mb 0.00 in0.0 mm 0.00 in0.0 mm 0.00 in0.0 mm
11:26 AM 28.2°F-2.1°C 23.4°F-4.8°C 86% 8.7 mph WNW14.0 kmh WNW 20.6 mph33.2 kmh 30.32 in1026.8 mb 0.00 in0.0 mm 0.00 in0.0 mm 0.00 in0.0 mm
11:05 AM 27.9°F-2.3°C 23.0°F-5.0°C 86% 9.4 mph WNW15.1 kmh WNW 32.2 mph51.8 kmh 30.32 in1026.8 mb 0.00 in0.0 mm 0.00 in0.0 mm 0.00 in0.0 mm
10:47 AM 27.9°F-2.3°C 23.4°F-4.8°C 87% 8.7 mph WNW14.0 kmh WNW 19.2 mph30.9 kmh 30.31 in1026.4 mb 0.00 in0.0 mm 0.00 in0.0 mm 0.00 in0.0 mm
10:26 AM 27.7°F-2.4°C 23.4°F-4.8°C 88% 7.4 mph WNW11.9 kmh WNW 18.1 mph29.1 kmh 30.31 in1026.4 mb 0.00 in0.0 mm 0.00 in0.0 mm 0.00 in0.0 mm
10:04 AM 27.3°F-2.6°C 23.4°F-4.8°C 89% 9.4 mph WNW15.1 kmh WNW 21.0 mph33.8 kmh 30.30 in1026.1 mb 0.00 in0.0 mm 0.00 in0.0 mm 0.00 in0.0 mm
09:44 AM 27.3°F-2.6°C 23.4°F-4.8°C 89% 8.7 mph N14.0 kmh N 32.9 mph52.9 kmh 30.29 in1025.7 mb 0.00 in0.0 mm 0.00 in0.0 mm 0.00 in0.0 mm
09:26 AM 27.3°F-2.6°C 23.4°F-4.8°C 89% 7.4 mph NW11.9 kmh NW 21.0 mph33.8 kmh 30.29 in1025.7 mb 0.00 in0.0 mm 0.00 in0.0 mm 0.00 in0.0 mm
09:06 AM 27.5°F-2.5°C 23.5°F-4.7°C 89% 8.7 mph WNW14.0 kmh WNW 25.5 mph41.0 kmh 30.29 in1025.7 mb 0.00 in0.0 mm 0.00 in0.0 mm 0.00 in0.0 mm
08:47 AM 27.5°F-2.5°C 24.3°F-4.3°C 91% 6.3 mph WNW10.1 kmh WNW 25.5 mph41.0 kmh 30.28 in1025.4 mb 0.00 in0.0 mm 0.00 in0.0 mm 0.00 in0.0 mm
08:21 AM 27.3°F-2.6°C 24.4°F-4.2°C 92% 6.9 mph WNW11.1 kmh WNW 27.3 mph43.9 kmh 30.28 in1025.4 mb 0.00 in0.0 mm 0.00 in0.0 mm 0.00 in0.0 mm
08:09 AM 27.3°F-2.6°C 24.8°F-4.0°C 93% 6.3 mph NW10.1 kmh NW 18.6 mph29.9 kmh 30.28 in1025.4 mb 0.00 in0.0 mm 0.00 in0.0 mm 0.00 in0.0 mm
07:48 AM 27.1°F-2.7°C 24.6°F-4.1°C 93% 7.4 mph WNW11.9 kmh WNW 18.6 mph29.9 kmh 30.28 in1025.4 mb 0.00 in0.0 mm 0.00 in0.0 mm 0.00 in0.0 mm
07:18 AM 27.5°F-2.5°C 25.0°F-3.9°C 93% 6.3 mph NW10.1 kmh NW 16.1 mph25.9 kmh 30.26 in1024.7 mb 0.00 in0.0 mm 0.00 in0.0 mm 0.00 in0.0 mm
07:03 AM 27.7°F-2.4°C 25.2°F-3.8°C 93% 7.4 mph WNW11.9 kmh WNW 19.2 mph30.9 kmh 30.25 in1024.4 mb 0.00 in0.0 mm 0.00 in0.0 mm 0.00 in0.0 mm
06:43 AM 27.7°F-2.4°C 25.2°F-3.8°C 93% 6.9 mph WNW11.1 kmh WNW 27.3 mph43.9 kmh 30.25 in1024.4 mb 0.00 in0.0 mm 0.00 in0.0 mm 0.00 in0.0 mm
06:21 AM 27.9°F-2.3°C 25.3°F-3.7°C 93% 6.3 mph WNW10.1 kmh WNW 16.8 mph27.0 kmh 30.24 in1024.0 mb 0.00 in0.0 mm 0.00 in0.0 mm 0.00 in0.0 mm
06:03 AM 27.7°F-2.4°C 25.2°F-3.8°C 93% 7.4 mph NW11.9 kmh NW 16.8 mph27.0 kmh 30.23 in1023.7 mb 0.00 in0.0 mm 0.00 in0.0 mm 0.00 in0.0 mm
05:43 AM 27.9°F-2.3°C 25.3°F-3.7°C 93% 7.4 mph WNW11.9 kmh WNW 18.6 mph29.9 kmh 30.22 in1023.4 mb 0.00 in0.0 mm 0.00 in0.0 mm 0.00 in0.0 mm
05:23 AM 27.9°F-2.3°C 25.0°F-3.9°C 92% 7.4 mph WNW11.9 kmh WNW 18.6 mph29.9 kmh 30.22 in1023.4 mb 0.00 in0.0 mm 0.00 in0.0 mm 0.00 in0.0 mm
05:03 AM 27.9°F-2.3°C 25.0°F-3.9°C 92% 6.3 mph WNW10.1 kmh WNW 15.4 mph24.8 kmh 30.22 in1023.4 mb 0.00 in0.0 mm 0.00 in0.0 mm 0.00 in0.0 mm
04:43 AM 28.0°F-2.2°C 24.8°F-4.0°C 91% 6.9 mph NW11.1 kmh NW 16.8 mph27.0 kmh 30.22 in1023.4 mb 0.00 in0.0 mm 0.00 in0.0 mm 0.00 in0.0 mm
04:23 AM 28.2°F-2.1°C 25.0°F-3.9°C 91% 4.3 mph WNW6.9 kmh WNW 15.4 mph24.8 kmh 30.22 in1023.4 mb 0.00 in0.0 mm 0.00 in0.0 mm 0.00 in0.0 mm
04:03 AM 28.4°F-2.0°C 25.5°F-3.6°C 92% 6.3 mph WNW10.1 kmh WNW 16.1 mph25.9 kmh 30.22 in1023.4 mb 0.00 in0.0 mm 0.00 in0.0 mm 0.00 in0.0 mm
03:43 AM 28.4°F-2.0°C 25.5°F-3.6°C 92% 4.9 mph WNW7.9 kmh WNW 18.1 mph29.1 kmh 30.22 in1023.4 mb 0.00 in0.0 mm 0.00 in0.0 mm 0.00 in0.0 mm
03:22 AM 28.4°F-2.0°C 25.5°F-3.6°C 92% 6.3 mph WNW10.1 kmh WNW 16.1 mph25.9 kmh 30.22 in1023.4 mb 0.00 in0.0 mm 0.00 in0.0 mm 0.00 in0.0 mm
03:03 AM 28.4°F-2.0°C 25.2°F-3.8°C 91% 4.9 mph WNW7.9 kmh WNW 15.4 mph24.8 kmh 30.22 in1023.4 mb 0.00 in0.0 mm 0.00 in0.0 mm 0.00 in0.0 mm
02:42 AM 28.4°F-2.0°C 25.5°F-3.6°C 92% 4.3 mph WSW6.9 kmh WSW 13.6 mph21.9 kmh 30.22 in1023.4 mb 0.00 in0.0 mm 0.00 in0.0 mm 0.00 in0.0 mm
02:23 AM 28.4°F-2.0°C 25.2°F-3.8°C 91% 4.9 mph WNW7.9 kmh WNW 11.9 mph19.2 kmh 30.23 in1023.7 mb 0.00 in0.0 mm 0.00 in0.0 mm 0.00 in0.0 mm
02:02 AM 28.2°F-2.1°C 25.0°F-3.9°C 91% 4.9 mph N7.9 kmh N 19.2 mph30.9 kmh 30.22 in1023.4 mb 0.00 in0.0 mm 0.00 in0.0 mm 0.00 in0.0 mm
01:42 AM 28.2°F-2.1°C 24.6°F-4.1°C 90% 4.3 mph NW6.9 kmh NW 14.3 mph23.0 kmh 30.23 in1023.7 mb 0.00 in0.0 mm 0.00 in0.0 mm 0.00 in0.0 mm
01:22 AM 28.0°F-2.2°C 24.4°F-4.2°C 90% 4.3 mph W6.9 kmh W 9.4 mph15.1 kmh 30.23 in1023.7 mb 0.00 in0.0 mm 0.00 in0.0 mm 0.00 in0.0 mm
01:02 AM 27.9°F-2.3°C 24.3°F-4.3°C 90% 4.3 mph N6.9 kmh N 18.1 mph29.1 kmh 30.22 in1023.4 mb 0.00 in0.0 mm 0.00 in0.0 mm 0.00 in0.0 mm
12:43 AM 27.7°F-2.4°C 24.1°F-4.4°C 90% 4.3 mph W6.9 kmh W 23.0 mph37.0 kmh 30.22 in1023.4 mb 0.00 in0.0 mm 0.00 in0.0 mm 0.00 in0.0 mm
12:28 AM 27.5°F-2.5°C 24.3°F-4.3°C 91% 4.9 mph N7.9 kmh N 11.2 mph18.0 kmh 30.21 in1023.0 mb 0.00 in0.0 mm 0.00 in0.0 mm 0.00 in0.0 mm